»·PEaware :: N805RJ KTLV-KPVF

N805RJ :: KTLV-KPVF

FLIGHT INFORMATION

Flight Status: Arrived
Operator: Privately registered:
United States
More flights under this callsign
Pilot: Rickie J. (22768)
Aircraft: CESSNA 172 SKYHAWK
(C172)
More flights by this aircraft type
Origin: KTLV
Destination: KPVF Placerville
United States
More flights between these airports :: More routes between these airports
Route: SWR
File this flight plan on PilotEdge
Remarks:
Altitude:
(Current/Filed)
10,500ft
Speed:
(Current/Filed)
120kts
Departed: 01-Feb-20 04:42 PM
Arrived: 01-Feb-20 05:17 PM
Distance/Time
Traveled:
Not Available
Distance/Time
To Go:
Arrived

Flight Plot

Page will automatically refresh every two minutes.

Flight plan parsing failed; only flown route is shown


Map Options




Map Legend


Flown Route
Filed Route
Departure Airport
Arrival Airport
Navaid (VOR, NDB)
Fix

Horizontal Profiles

Position Reports

Time Latitude Longitude Heading Altitude Ground
Speed
01-Feb-20 15:48 38.894075 -119.997038 101 6268ft 0kts
01-Feb-20 15:49 38.894075 -119.997038 101 6268ft 0kts
01-Feb-20 15:50 38.894075 -119.997038 101 6268ft 0kts
01-Feb-20 15:51 38.894075 -119.997038 101 6268ft 0kts
01-Feb-20 15:52 38.894075 -119.997038 101 6268ft 0kts
01-Feb-20 15:53 38.894075 -119.997038 101 6268ft 0kts
01-Feb-20 15:54 38.894075 -119.997038 101 6268ft 0kts
01-Feb-20 15:55 38.894075 -119.997038 101 6268ft 0kts
01-Feb-20 15:56 38.894075 -119.997038 101 6268ft 0kts
01-Feb-20 15:57 38.894075 -119.997038 101 6268ft 0kts
01-Feb-20 15:58 38.894075 -119.997038 101 6268ft 0kts
01-Feb-20 15:59 38.894075 -119.997038 101 6268ft 0kts
01-Feb-20 16:00 38.894075 -119.997038 101 6268ft 0kts
01-Feb-20 16:01 38.894075 -119.997038 101 6268ft 0kts
01-Feb-20 16:02 38.894075 -119.997038 101 6268ft 0kts
01-Feb-20 16:03 38.894075 -119.997038 101 6268ft 0kts
01-Feb-20 16:04 38.894075 -119.997038 101 6268ft 0kts
01-Feb-20 16:05 38.894075 -119.997038 101 6268ft 0kts
01-Feb-20 16:06 38.894075 -119.997038 101 6268ft 0kts
01-Feb-20 16:08 38.894075 -119.997038 101 6268ft 0kts
01-Feb-20 16:09 38.894075 -119.997038 101 6268ft 0kts
01-Feb-20 16:10 38.894075 -119.997038 101 6268ft 0kts
01-Feb-20 16:11 38.894075 -119.997038 101 6268ft 0kts
01-Feb-20 16:12 38.894075 -119.997038 101 6268ft 0kts
01-Feb-20 16:13 38.894075 -119.997038 101 6268ft 0kts
01-Feb-20 16:14 38.894075 -119.997038 101 6268ft 0kts
01-Feb-20 16:15 38.894075 -119.997038 101 6268ft 0kts
01-Feb-20 16:16 38.894075 -119.997038 101 6268ft 0kts
01-Feb-20 16:17 38.894075 -119.997038 101 6268ft 0kts
01-Feb-20 16:18 38.894075 -119.997038 101 6268ft 0kts
01-Feb-20 16:19 38.894075 -119.997038 101 6268ft 0kts
01-Feb-20 16:20 38.894075 -119.997038 101 6268ft 0kts
01-Feb-20 16:21 38.894075 -119.997038 101 6268ft 0kts
01-Feb-20 16:22 38.894075 -119.997038 101 6268ft 0kts
01-Feb-20 16:23 38.894075 -119.997038 101 6268ft 0kts
01-Feb-20 16:24 38.894075 -119.997038 101 6268ft 0kts
01-Feb-20 16:25 38.894075 -119.997038 101 6268ft 0kts
01-Feb-20 16:26 38.894075 -119.997038 101 6268ft 0kts
01-Feb-20 16:27 38.894075 -119.997038 101 6268ft 0kts
01-Feb-20 16:27 38.894075 -119.997038 101 6268ft 0kts
01-Feb-20 16:29 38.894075 -119.997038 101 6268ft 0kts
01-Feb-20 16:30 38.893910 -119.996869 189 6268ft 0kts
01-Feb-20 16:30 38.893698 -119.996917 193 6268ft 2kts
01-Feb-20 16:31 38.892825 -119.997411 196 6268ft 4kts
01-Feb-20 16:33 38.891216 -119.997116 193 6268ft 6kts
01-Feb-20 16:33 38.889687 -119.997570 194 6268ft 7kts
01-Feb-20 16:34 38.887473 -119.998235 194 6268ft 10kts
01-Feb-20 16:35 38.884016 -119.999227 192 6268ft 14kts
01-Feb-20 16:36 38.882595 -119.999663 99 6268ft 0kts
01-Feb-20 16:37 38.882595 -119.999663 99 6268ft 0kts
01-Feb-20 16:38 38.882703 -119.999397 89 6268ft 0kts
01-Feb-20 16:39 38.882703 -119.999397 89 6268ft 0kts
01-Feb-20 16:40 38.882675 -119.998780 64 6268ft 5kts
01-Feb-20 16:41 38.888305 -119.996879 12 6268ft 64kts
01-Feb-20 16:42 38.909639 -119.989541 10 6874ft 71kts
01-Feb-20 16:43 38.930706 -119.978936 349 7265ft 89kts
01-Feb-20 16:44 38.944404 -120.004484 296 7696ft 90kts
01-Feb-20 16:45 38.954866 -120.033862 293 8291ft 88kts
01-Feb-20 16:46 38.966992 -120.060965 303 8889ft 88kts
01-Feb-20 16:47 38.985397 -120.081665 309 9474ft 88kts
01-Feb-20 16:48 39.007076 -120.102809 310 9793ft 102kts
01-Feb-20 16:49 39.030238 -120.124910 310 10099ft 104kts
01-Feb-20 16:50 39.053539 -120.147181 310 10405ft 104kts
01-Feb-20 16:51 39.077249 -120.169943 310 10551ft 113kts
01-Feb-20 16:52 39.103075 -120.194630 311 10509ft 120kts
01-Feb-20 16:53 39.129647 -120.220067 311 10500ft 117kts
01-Feb-20 16:54 39.155808 -120.245185 310 10501ft 117kts
01-Feb-20 16:55 39.169966 -120.274432 243 10501ft 98kts
01-Feb-20 16:56 39.152607 -120.299328 228 10498ft 84kts
01-Feb-20 16:57 39.135375 -120.318420 227 10504ft 88kts
01-Feb-20 16:58 39.114759 -120.340637 226 10090ft 105kts
01-Feb-20 16:59 39.090652 -120.366362 224 9477ft 121kts
01-Feb-20 17:00 39.063966 -120.394796 223 8856ft 126kts
01-Feb-20 17:01 39.037396 -120.423149 221 8230ft 118kts
01-Feb-20 17:02 39.011935 -120.450265 220 7608ft 119kts
01-Feb-20 17:03 38.985923 -120.477820 224 6991ft 125kts
01-Feb-20 17:04 38.957970 -120.507627 223 6394ft 132kts
01-Feb-20 17:05 38.928839 -120.538514 222 5791ft 137kts
01-Feb-20 17:06 38.901140 -120.570167 225 5263ft 118kts
01-Feb-20 17:07 38.878754 -120.597429 227 5268ft 109kts
01-Feb-20 17:08 38.857913 -120.626056 224 5213ft 109kts
01-Feb-20 17:09 38.836015 -120.654687 224 4916ft 112kts
01-Feb-20 17:10 38.813976 -120.683010 222 4614ft 107kts
01-Feb-20 17:11 38.795745 -120.706026 223 4333ft 91kts
01-Feb-20 17:12 38.772756 -120.698014 156 4025ft 93kts
01-Feb-20 17:13 38.749250 -120.702677 209 3708ft 85kts
01-Feb-20 17:14 38.735905 -120.725406 239 3414ft 78kts
01-Feb-20 17:15 38.726185 -120.748476 241 2694ft 69kts
01-Feb-20 17:16 38.721712 -120.759685 272 2588ft 4kts
01-Feb-20 17:17 38.722039 -120.759878 56 2588ft 0kts
01-Feb-20 17:18 38.722621 -120.758473 62 2588ft 9kts
01-Feb-20 17:19 38.723032 -120.757926 152 2588ft 0kts
01-Feb-20 17:20 38.723032 -120.757926 152 2588ft 0kts
01-Feb-20 17:21 38.723032 -120.757926 152 2588ft 0kts
01-Feb-20 17:22 38.723032 -120.757926 152 2588ft 0kts
01-Feb-20 17:23 38.723032 -120.757926 152 2588ft 0kts
01-Feb-20 17:24 38.723032 -120.757926 152 2588ft 0kts
01-Feb-20 17:25 38.723032 -120.757926 152 2588ft 0kts

Navigation Log

Ident Type
Flight plan parsing failed, navigation log unavailable